Terminal Aerodrome Forecast
Issued by NWS Albany, NY

Home | Current Version | Previous Version | Text Only | Print | Product List | Glossary On
Versions: 1 2 3 4 5 6 7 8 9 10 11 12 13 14 15 16 17 18
000
FTUS41 KALY 231100
TAFALB
TAF
KALB 231121Z 2312/2412 21003KT P6SM FEW030
     FM231500 29005KT P6SM SKC
     FM231800 29010KT P6SM SCT035 SCT050
     FM240000 VRB03KT P6SM SKC=

USA.gov is the U.S. government's official web portal to all federal, state and local government web resources and services.